Portada
METAR-TAF:

METAR-TAF

Aeroports :

Guwahati, Índia

latitud: 26-06-22N, longitud: 091-35-09E, altitud: 49 m

Observació

L'informe es va fer fa 26 minuts, a les 23:00 UTC
Vent 4 kt del Sud
Temperatura 19°C
Humitat 88%
Pressió 1012 hPa
Visibilitat: 1500 m
Núvols disperses a una alçada de 1800 ft
Cel ennuvolat a una alçada de 10000 ft
boirina

METAR: VEGT 172300Z 19004KT 1500 BR SCT018 BKN100 19/17 Q1012 NOSIG

Hora: 04:56 (23:26 UTC)

Pronòstic

L'informe es va fer fa 3 hores i 26 minuts, a les 20:00 UTC
Pronòstic vàlid del 17 a les 21 UTC al 18 a les 06 UTC
Vent kt del Nord
Visibilitat: 1500 m
Núvols disperses a una alçada de 1800 ft
Núvols disperses a una alçada de 10000 ft
boirina
Evolucionant progressivament
l' 18 a les 03 UTC al 18 a les 05 UTC
Vent 4 kt del Oest/Sud-Oest
Visibilitat: 2000 m
Escasses núvols a una alçada de 1800 ft
Núvols disperses a una alçada de 10000 ft
boirina

TAF: VEGT 172000Z 1721/1806 00000KT 1500 BR SCT018 SCT100 BECMG 1803/1805 25004KT 2000 BR FEW018 SCT100

Observacions i pronòstics meteorològics de més de 4000 aeroports (METAR i TAF).

Les estacions disponibles són els punts grocs i vermells al mapa.

Posi el ratolí al punt desitjat per veure el nom de l'estació.

Feu clic per veure les observacions i els pronòstics meteorològics.

Per canviar el mapa: feu clic els botons verds amb una creu de color negre per apropar; al botó verd amb un guió per allunyar la imatge; o en les fletxes verdes per a mapes adjacents.


METAR-TAF: